Portada
METAR-TAF:

METAR-TAF

Aeroports :

Semei, Kazakhstan

latitud: 50-21-05N, longitud: 080-14-04E, altitud: 232 m

Observació

L'informe es va fer fa 24 minuts, a les 00:00 UTC
Vent 2 kt amb direcció variable
Temperatura -18°C
Humitat 84%
Pressió 1040 hPa
Visibilitat 10 km o més
Cel ennuvolat a una alçada de 4000 ft

METAR: UASS 060000Z VRB01MPS 9999 BKN040 M18/M20 Q1040 NOSIG RMK QFE761/1015

Hora: 06:24 (00:24 UTC)

Pronòstic

L'informe es va fer fa 47 minuts, a les 23:37 UTC
Pronòstic vàlid del 06 a les 00 UTC al 06 a les 09 UTC
Vent 4 kt del Oest/Sud-Oest
Visibilitat 10 km o més
Cel ennuvolat a una alçada de 3000 ft
Cel cobert a una alçada de 10000 ft
Temporalment
l' 06 a les 00 UTC al 06 a les 06 UTC
Vent 4 kt amb direcció variable
Visibilitat: 3100 m
Núvols disperses a una alçada de 700 ft
boirina

TAF: UASS 052337Z 0600/0609 24002MPS 9999 BKN030 OVC100 TEMPO 0600/0606 VRB02MPS 3100 BR SCT007

Observacions i pronòstics meteorològics de més de 4000 aeroports (METAR i TAF).

Les estacions disponibles són els punts grocs i vermells al mapa.

Posi el ratolí al punt desitjat per veure el nom de l'estació.

Feu clic per veure les observacions i els pronòstics meteorològics.

Per canviar el mapa: feu clic els botons verds amb una creu de color negre per apropar; al botó verd amb un guió per allunyar la imatge; o en les fletxes verdes per a mapes adjacents.


METAR-TAF: